createdAt,value
2018-04-01T00:01:09.272Z,7.87
2018-04-01T00:03:37.088Z,11.20
2018-04-01T00:06:04.883Z,14.42
2018-04-01T00:08:32.696Z,7.20
2018-04-01T00:11:00.483Z,10.15
2018-04-01T00:13:28.305Z,7.85
2018-04-01T00:15:56.124Z,12.38
2018-04-01T00:18:23.944Z,10.60
2018-04-01T00:20:51.742Z,8.42
2018-04-01T00:23:19.560Z,9.52
2018-04-01T00:25:47.361Z,7.62
2018-04-01T00:28:15.189Z,6.83
2018-04-01T00:30:42.980Z,7.53
2018-04-01T00:33:10.793Z,34.18
2018-04-01T00:35:38.618Z,45.33
2018-04-01T00:38:06.411Z,11.78
2018-04-01T00:40:34.231Z,14.75
2018-04-01T00:43:02.022Z,8.18
2018-04-01T00:45:29.076Z,8.13
2018-04-01T00:47:56.886Z,8.57
2018-04-01T00:50:24.708Z,97.05
2018-04-01T00:52:52.504Z,110.92
2018-04-01T00:55:20.337Z,207.67
2018-04-01T00:57:48.139Z,48.20
2018-04-01T01:00:15.966Z,26.13
2018-04-01T01:02:43.764Z,15.32
2018-04-01T01:05:11.580Z,14.23
2018-04-01T01:07:39.408Z,11.28
2018-04-01T01:10:07.229Z,13.47
2018-04-01T01:12:35.034Z,15.33
2018-04-01T01:15:02.857Z,12.40
2018-04-01T01:17:30.663Z,12.52
2018-04-01T01:19:58.494Z,10.57
2018-04-01T01:22:26.292Z,10.72
2018-04-01T01:24:54.107Z,12.28
2018-04-01T01:27:21.908Z,11.15
2018-04-01T01:29:49.744Z,10.98
2018-04-01T01:32:17.544Z,13.30
2018-04-01T01:34:45.360Z,12.60
2018-04-01T01:37:13.158Z,11.62
2018-04-01T01:39:40.976Z,10.60
2018-04-01T01:42:08.784Z,11.10
2018-04-01T01:44:36.604Z,10.23
2018-04-01T01:47:04.405Z,9.73
2018-04-01T01:49:32.228Z,11.65
2018-04-01T01:52:00.025Z,10.62
2018-04-01T01:54:27.854Z,10.77
2018-04-01T01:56:55.656Z,9.87
2018-04-01T01:59:23.481Z,11.15
2018-04-01T02:01:51.281Z,9.52
2018-04-01T02:04:19.100Z,8.90
2018-04-01T02:06:46.896Z,9.70
2018-04-01T02:09:14.708Z,10.12
2018-04-01T02:11:42.497Z,11.95
2018-04-01T02:14:10.301Z,13.28
2018-04-01T02:16:38.132Z,11.22
2018-04-01T02:19:05.929Z,12.28
2018-04-01T02:21:33.757Z,11.57
2018-04-01T02:24:01.564Z,11.68
2018-04-01T02:26:29.386Z,11.52
2018-04-01T02:28:57.194Z,10.02
2018-04-01T02:31:25.083Z,8.67
2018-04-01T02:33:52.826Z,10.67
2018-04-01T02:36:20.648Z,11.62
2018-04-01T02:38:48.443Z,10.48
2018-04-01T02:41:16.264Z,11.23
2018-04-01T02:43:44.065Z,10.72
2018-04-01T02:46:11.906Z,12.15
2018-04-01T02:48:39.716Z,10.00
2018-04-01T02:51:07.546Z,10.42
2018-04-01T02:53:35.345Z,10.57
2018-04-01T02:56:03.168Z,11.70
2018-04-01T02:58:30.983Z,13.83
2018-04-01T03:00:58.816Z,16.75
2018-04-01T03:03:26.634Z,14.93
2018-04-01T03:05:54.464Z,16.45
2018-04-01T03:08:22.288Z,15.03
2018-04-01T03:10:50.119Z,19.88
2018-04-01T03:13:17.924Z,16.15
2018-04-01T03:15:45.720Z,17.35
2018-04-01T03:18:13.544Z,13.37
2018-04-01T03:20:41.346Z,14.30
2018-04-01T03:23:09.165Z,16.70
2018-04-01T03:25:36.960Z,12.13
2018-04-01T03:28:04.783Z,16.92
2018-04-01T03:30:32.593Z,14.77
2018-04-01T03:33:00.415Z,13.85
2018-04-01T03:35:28.228Z,14.45
2018-04-01T03:37:56.073Z,15.37
2018-04-01T03:40:23.876Z,15.92
2018-04-01T03:42:51.668Z,14.02
2018-04-01T03:45:19.500Z,17.05
2018-04-01T03:47:47.308Z,15.35
2018-04-01T03:50:15.129Z,15.45
2018-04-01T03:52:42.935Z,14.57
2018-04-01T03:55:10.758Z,13.92
2018-04-01T03:57:38.564Z,14.02
2018-04-01T04:00:06.389Z,17.78
2018-04-01T04:02:34.200Z,15.68
2018-04-01T04:05:02.017Z,15.93
2018-04-01T04:07:29.056Z,14.48
2018-04-01T04:09:56.880Z,15.15
2018-04-01T04:12:24.689Z,17.38
2018-04-01T04:14:52.501Z,12.48
2018-04-01T04:17:20.326Z,16.87
2018-04-01T04:19:48.127Z,19.58
2018-04-01T04:22:15.962Z,16.45
2018-04-01T04:24:43.017Z,16.42
2018-04-01T04:27:10.847Z,15.02
2018-04-01T04:29:38.655Z,14.88
2018-04-01T04:32:06.475Z,12.40
2018-04-01T04:34:34.280Z,10.95
2018-04-01T04:37:02.114Z,10.62
2018-04-01T04:39:29.916Z,10.33
2018-04-01T04:41:57.768Z,12.82
2018-04-01T04:44:25.569Z,11.07
2018-04-01T04:46:53.850Z,10.13
2018-04-01T04:49:21.661Z,11.57
2018-04-01T04:51:49.476Z,9.15
2018-04-01T04:54:17.281Z,12.75
2018-04-01T04:56:45.109Z,12.25
2018-04-01T04:59:12.925Z,10.60
2018-04-01T05:01:40.744Z,9.78
2018-04-01T05:04:08.548Z,11.38
2018-04-01T05:06:36.369Z,11.53
2018-04-01T05:09:03.632Z,10.45
2018-04-01T05:11:31.460Z,10.77
2018-04-01T05:13:59.276Z,12.10
2018-04-01T05:16:27.100Z,12.35
2018-04-01T05:18:54.909Z,11.37
2018-04-01T05:21:22.753Z,15.92
2018-04-01T05:23:50.566Z,14.77
2018-04-01T05:26:18.392Z,14.77
2018-04-01T05:28:46.197Z,15.50
2018-04-01T05:31:14.001Z,14.67
2018-04-01T05:33:41.830Z,16.62
2018-04-01T05:36:09.629Z,16.97
2018-04-01T05:38:37.465Z,13.23
2018-04-01T05:41:05.274Z,19.15
2018-04-01T05:43:33.100Z,15.65
2018-04-01T05:46:00.908Z,19.05
2018-04-01T05:48:28.746Z,16.32
2018-04-01T05:50:56.944Z,15.58
2018-04-01T05:53:24.804Z,18.20
2018-04-01T05:55:52.632Z,17.17
2018-04-01T05:58:20.472Z,19.03
2018-04-01T06:00:48.284Z,20.77
2018-04-01T06:03:16.119Z,22.82
2018-04-01T06:05:43.926Z,23.00
2018-04-01T06:08:10.980Z,21.02
2018-04-01T06:10:38.792Z,19.75
2018-04-01T06:13:06.616Z,17.58
2018-04-01T06:15:34.420Z,18.63
2018-04-01T06:18:02.267Z,18.62
2018-04-01T06:20:30.077Z,22.33
2018-04-01T06:22:57.135Z,19.97
2018-04-01T06:25:24.945Z,21.53
2018-04-01T06:27:52.823Z,19.20
2018-04-01T06:30:20.621Z,22.18
2018-04-01T06:32:48.452Z,16.12
2018-04-01T06:35:16.262Z,32.78
2018-04-01T06:37:44.099Z,21.00
2018-04-01T06:40:11.908Z,25.00
2018-04-01T06:42:39.759Z,50.80
2018-04-01T06:45:07.565Z,20.35
2018-04-01T06:47:35.391Z,20.02
2018-04-01T06:50:03.197Z,19.78
2018-04-01T06:52:31.028Z,21.50
2018-04-01T06:54:58.828Z,60.67
2018-04-01T06:57:26.666Z,26.88
2018-04-01T06:59:54.481Z,21.40
2018-04-01T07:02:22.322Z,23.18
2018-04-01T07:04:50.130Z,8.00
2018-04-01T07:07:17.971Z,10.03
2018-04-01T07:09:45.772Z,8.82
2018-04-01T07:12:13.582Z,6.77
2018-04-01T07:14:41.421Z,7.40
2018-04-01T07:17:09.228Z,6.95
2018-04-01T07:19:37.061Z,9.07
2018-04-01T07:22:04.877Z,8.20
2018-04-01T07:24:32.708Z,8.07
2018-04-01T07:27:00.510Z,9.37
2018-04-01T07:29:28.332Z,9.42
2018-04-01T07:31:56.132Z,11.15
2018-04-01T07:34:23.193Z,10.13
2018-04-01T07:36:51.012Z,11.93
2018-04-01T07:39:18.840Z,13.07
2018-04-01T07:41:46.648Z,10.25
2018-04-01T07:44:14.474Z,10.15
2018-04-01T07:46:42.276Z,11.65
2018-04-01T07:49:10.437Z,9.75
2018-04-01T07:51:37.469Z,10.97
2018-04-01T07:54:05.295Z,8.72
2018-04-01T07:56:33.096Z,7.17
2018-04-01T07:59:00.911Z,6.17
2018-04-01T08:01:28.712Z,6.65
2018-04-01T08:03:56.532Z,7.08
2018-04-01T08:06:24.340Z,6.27
2018-04-01T08:08:52.156Z,6.82
2018-04-01T08:11:19.976Z,7.88
2018-04-01T08:13:47.803Z,7.33
2018-04-01T08:16:14.843Z,6.98
2018-04-01T08:18:42.672Z,8.27
2018-04-01T08:21:10.478Z,7.75
2018-04-01T08:23:38.319Z,7.70
2018-04-01T08:26:06.128Z,10.88
2018-04-01T08:28:33.972Z,9.98
2018-04-01T08:31:01.782Z,8.23
2018-04-01T08:33:29.605Z,9.42
2018-04-01T08:35:56.645Z,7.52
2018-04-01T08:38:24.476Z,7.37
2018-04-01T08:40:52.280Z,7.92
2018-04-01T08:43:19.341Z,8.82
2018-04-01T08:45:47.149Z,6.35
2018-04-01T08:48:14.962Z,7.82
2018-04-01T08:50:42.794Z,9.32
2018-04-01T08:53:10.668Z,9.27
2018-04-01T08:55:38.453Z,8.62
2018-04-01T08:58:06.265Z,8.05
2018-04-01T09:00:34.089Z,9.64
2018-04-01T09:03:01.898Z,11.63
2018-04-01T09:05:29.716Z,9.98
2018-04-01T09:07:57.541Z,12.35
2018-04-01T09:10:25.401Z,10.63
2018-04-01T09:12:53.212Z,12.90
2018-04-01T09:15:21.037Z,11.66
2018-04-01T09:17:48.076Z,10.63
2018-04-01T09:20:15.907Z,13.22
2018-04-01T09:22:43.730Z,11.80
2018-04-01T09:25:11.557Z,10.25
2018-04-01T09:27:39.363Z,9.84
2018-04-01T09:30:07.187Z,11.00
2018-04-01T09:32:34.997Z,12.34
2018-04-01T09:35:02.829Z,10.90
2018-04-01T09:37:30.656Z,10.28
2018-04-01T09:39:58.485Z,11.86
2018-04-01T09:42:26.285Z,12.44
2018-04-01T09:44:54.104Z,12.30
2018-04-01T09:47:21.921Z,11.38
2018-04-01T09:49:49.747Z,11.58
2018-04-01T09:52:17.548Z,12.10
2018-04-01T09:54:45.375Z,12.84
2018-04-01T09:57:12.412Z,12.60
2018-04-01T09:59:40.233Z,12.80
2018-04-01T10:02:08.544Z,10.30
2018-04-01T10:04:36.856Z,13.58
2018-04-01T10:07:05.148Z,11.98
2018-04-01T10:09:33.463Z,14.38
2018-04-01T10:12:01.766Z,10.24
2018-04-01T10:14:30.080Z,11.60
2018-04-01T10:16:57.620Z,14.38
2018-04-01T10:19:25.937Z,19.62
2018-04-01T10:21:54.228Z,13.48
2018-04-01T10:24:22.544Z,9.98
2018-04-01T10:26:50.068Z,9.88
2018-04-01T10:29:18.368Z,47.52
2018-04-01T10:31:46.684Z,10.82
2018-04-01T10:34:14.988Z,10.42
2018-04-01T10:36:43.328Z,106.63
2018-04-01T10:39:11.624Z,17.44
2018-04-01T10:41:39.976Z,12.23
2018-04-01T10:44:08.276Z,50.60
2018-04-01T10:46:36.592Z,20.40
2018-04-01T10:49:05.728Z,27.22
2018-04-01T10:51:34.064Z,30.32
2018-04-01T10:54:01.878Z,11.62
2018-04-01T10:56:29.720Z,12.22
2018-04-01T10:58:57.536Z,53.60
2018-04-01T11:01:25.377Z,43.47
2018-04-01T11:03:53.194Z,12.58
2018-04-01T11:06:21.040Z,36.57
2018-04-01T11:08:48.853Z,10.57
2018-04-01T11:11:16.689Z,11.70
2018-04-01T11:13:44.502Z,10.10
2018-04-01T11:16:12.336Z,10.02
2018-04-01T11:18:40.170Z,11.46
2018-04-01T11:21:07.996Z,10.04
2018-04-01T11:23:35.826Z,11.24
2018-04-01T11:26:03.728Z,13.22
2018-04-01T11:28:31.517Z,11.68
2018-04-01T11:30:59.373Z,11.86
2018-04-01T11:33:27.197Z,14.38
2018-04-01T11:35:55.976Z,11.78
2018-04-01T11:38:23.126Z,13.82
2018-04-01T11:40:50.958Z,13.44
2018-04-01T11:43:19.621Z,14.10
2018-04-01T11:45:47.468Z,14.18
2018-04-01T11:48:15.276Z,15.54
2018-04-01T11:50:43.116Z,13.30
2018-04-01T11:53:10.930Z,17.60
2018-04-01T11:55:38.764Z,14.50
2018-04-01T11:58:06.564Z,15.34
2018-04-01T12:00:34.392Z,13.16
2018-04-01T12:03:02.206Z,12.76
2018-04-01T12:05:30.034Z,11.84
2018-04-01T12:07:57.860Z,11.62
2018-04-01T12:10:25.677Z,12.82
2018-04-01T12:12:53.499Z,19.26
2018-04-01T12:15:21.292Z,12.16
2018-04-01T12:17:49.120Z,12.06
2018-04-01T12:20:16.920Z,12.70
2018-04-01T12:22:44.764Z,14.72
2018-04-01T12:25:11.804Z,11.02
2018-04-01T12:27:39.648Z,15.28
2018-04-01T12:30:07.469Z,14.92
2018-04-01T12:32:35.288Z,16.84
2018-04-01T12:35:03.100Z,15.86
2018-04-01T12:37:30.941Z,14.92
2018-04-01T12:39:58.744Z,16.00
2018-04-01T12:42:26.588Z,14.36
2018-04-01T12:44:54.396Z,17.18
2018-04-01T12:47:22.224Z,15.88
2018-04-01T12:49:50.030Z,17.00
2018-04-01T12:52:17.866Z,19.42
2018-04-01T12:54:45.688Z,15.10
2018-04-01T12:57:13.529Z,16.74
2018-04-01T12:59:41.341Z,20.38
2018-04-01T13:02:09.169Z,20.80
2018-04-01T13:04:36.976Z,19.60
2018-04-01T13:07:04.808Z,23.70
2018-04-01T13:09:32.613Z,20.46
2018-04-01T13:12:00.440Z,22.84
2018-04-01T13:14:28.256Z,20.00
2018-04-01T13:16:56.084Z,23.56
2018-04-01T13:19:23.926Z,28.62
2018-04-01T13:21:51.736Z,25.18
2018-04-01T13:24:19.541Z,28.84
2018-04-01T13:26:47.370Z,27.72
2018-04-01T13:29:15.173Z,25.44
2018-04-01T13:31:43.003Z,27.40
2018-04-01T13:34:10.809Z,29.10
2018-04-01T13:36:37.878Z,22.98
2018-04-01T13:39:05.698Z,24.94
2018-04-01T13:41:33.503Z,28.60
2018-04-01T13:44:01.324Z,25.26
2018-04-01T13:46:30.068Z,26.84
2018-04-01T13:48:57.153Z,27.44
2018-04-01T13:51:24.961Z,28.24
2018-04-01T13:53:52.992Z,26.76
2018-04-01T13:56:20.800Z,26.60
2018-04-01T13:58:48.673Z,26.94
2018-04-01T14:01:16.569Z,26.54
2018-04-01T14:03:44.405Z,32.36
2018-04-01T14:06:12.301Z,25.90
2018-04-01T14:08:39.373Z,26.94
2018-04-01T14:11:07.181Z,28.04
2018-04-01T14:13:35.022Z,31.86
2018-04-01T14:16:02.059Z,30.60
2018-04-01T14:18:29.121Z,35.38
2018-04-01T14:20:56.928Z,30.18
2018-04-01T14:23:24.757Z,30.52
2018-04-01T14:25:52.559Z,29.16
2018-04-01T14:28:20.388Z,29.34
2018-04-01T14:30:48.192Z,32.80
2018-04-01T14:33:16.078Z,33.48
2018-04-01T14:35:43.836Z,34.20
2018-04-01T14:38:11.668Z,33.68
2018-04-01T14:40:39.485Z,33.80
2018-04-01T14:43:07.317Z,30.55
2018-04-01T14:45:35.116Z,36.20
2018-04-01T14:48:02.948Z,31.90
2018-04-01T14:50:30.748Z,30.10
2018-04-01T14:52:58.576Z,31.06
2018-04-01T14:55:25.617Z,35.80
2018-04-01T14:57:52.671Z,36.66
2018-04-01T15:00:20.488Z,38.88
2018-04-01T15:02:47.608Z,35.22
2018-04-01T15:05:15.376Z,37.22
2018-04-01T15:07:43.209Z,37.36
2018-04-01T15:10:11.024Z,35.22
2018-04-01T15:12:38.859Z,34.26
2018-04-01T15:15:06.769Z,40.80
2018-04-01T15:17:33.813Z,44.03
2018-04-01T15:20:01.659Z,45.38
2018-04-01T15:22:29.464Z,44.86
2018-04-01T15:24:57.295Z,46.66
2018-04-01T15:27:25.109Z,42.38
2018-04-01T15:29:52.949Z,50.17
2018-04-01T15:32:20.769Z,45.08
2018-04-01T15:34:48.595Z,49.58
2018-04-01T15:37:16.406Z,47.10
2018-04-01T15:39:44.260Z,50.83
2018-04-01T15:42:12.068Z,49.92
2018-04-01T15:44:40.272Z,45.58
2018-04-01T15:47:08.081Z,48.17
2018-04-01T15:49:35.910Z,47.56
2018-04-01T15:52:03.787Z,47.34
2018-04-01T15:54:31.613Z,47.80
2018-04-01T15:56:59.502Z,49.76
2018-04-01T15:59:27.440Z,45.34
2018-04-01T16:01:55.244Z,48.58
2018-04-01T16:04:23.073Z,48.46
2018-04-01T16:06:50.884Z,59.38
2018-04-01T16:09:18.740Z,50.66
2018-04-01T16:11:46.604Z,52.68
2018-04-01T16:14:14.460Z,54.28
2018-04-01T16:16:42.263Z,58.00
2018-04-01T16:19:10.153Z,54.65
2018-04-01T16:21:37.937Z,56.93
2018-04-01T16:24:05.868Z,59.87
2018-04-01T16:26:34.548Z,58.68
2018-04-01T16:29:02.382Z,58.77
2018-04-01T16:31:30.209Z,59.98
2018-04-01T16:33:58.036Z,61.55
2018-04-01T16:36:25.914Z,58.03
2018-04-01T16:38:53.752Z,53.97
2018-04-01T16:41:21.563Z,64.08
2018-04-01T16:43:49.404Z,69.23
2018-04-01T16:46:17.262Z,65.52
2018-04-01T16:48:44.288Z,68.94
2018-04-01T16:51:12.116Z,64.08
2018-04-01T16:53:39.956Z,62.43
2018-04-01T16:56:07.784Z,83.68
2018-04-01T16:58:34.838Z,59.08
2018-04-01T17:01:02.673Z,67.60
2018-04-01T17:03:30.492Z,65.50
2018-04-01T17:05:58.328Z,68.30
2018-04-01T17:08:26.225Z,62.05
2018-04-01T17:10:54.053Z,68.80
2018-04-01T17:13:21.893Z,59.53
2018-04-01T17:15:49.832Z,71.70
2018-04-01T17:18:17.645Z,63.38
2018-04-01T17:20:45.472Z,69.12
2018-04-01T17:23:13.282Z,73.70
2018-04-01T17:25:41.134Z,65.63
2018-04-01T17:28:08.948Z,69.37
2018-04-01T17:30:36.782Z,69.45
2018-04-01T17:33:04.668Z,77.35
2018-04-01T17:35:32.510Z,74.47
2018-04-01T17:37:59.553Z,75.04
2018-04-01T17:40:27.407Z,83.67
2018-04-01T17:42:55.244Z,79.60
2018-04-01T17:45:23.112Z,75.88
2018-04-01T17:47:51.011Z,81.80
2018-04-01T17:50:18.881Z,70.00
2018-04-01T17:52:46.689Z,97.03
2018-04-01T17:55:14.521Z,77.25
2018-04-01T17:57:42.337Z,76.93
2018-04-01T18:00:10.228Z,79.40
2018-04-01T18:02:38.061Z,69.65
2018-04-01T18:05:05.896Z,77.82
2018-04-01T18:07:32.950Z,76.68
2018-04-01T18:10:00.792Z,70.27
2018-04-01T18:12:28.613Z,75.12
2018-04-01T18:14:56.441Z,72.55
2018-04-01T18:17:24.248Z,75.22
2018-04-01T18:19:52.108Z,78.80
2018-04-01T18:22:20.076Z,66.28
2018-04-01T18:24:47.948Z,72.98
2018-04-01T18:27:15.777Z,67.92
2018-04-01T18:29:43.583Z,64.37
2018-04-01T18:32:11.420Z,61.92
2018-04-01T18:34:39.466Z,71.48
2018-04-01T18:37:07.917Z,65.33
2018-04-01T18:39:35.130Z,64.37
2018-04-01T18:42:03.079Z,59.33
2018-04-01T18:44:30.936Z,62.43
2018-04-01T18:46:58.764Z,59.75
2018-04-01T18:49:26.582Z,64.22
2018-04-01T18:51:54.413Z,63.23
2018-04-01T18:54:21.449Z,63.55
2018-04-01T18:56:49.290Z,55.03
2018-04-01T18:59:17.096Z,56.22
2018-04-01T19:01:44.916Z,58.65
2018-04-01T19:04:12.734Z,51.50
2018-04-01T19:06:40.562Z,61.47
2018-04-01T19:09:08.373Z,57.22
2018-04-01T19:11:36.248Z,59.32
2018-04-01T19:14:04.053Z,62.68
2018-04-01T19:16:32.432Z,59.28
2018-04-01T19:19:00.762Z,60.95
2018-04-01T19:21:29.188Z,62.00
2018-04-01T19:23:57.484Z,60.62
2018-04-01T19:26:25.804Z,62.45
2018-04-01T19:28:53.349Z,53.53
2018-04-01T19:31:21.681Z,61.58
2018-04-01T19:33:50.015Z,62.07
2018-04-01T19:36:18.369Z,58.80
2018-04-01T19:38:46.678Z,58.57
2018-04-01T19:41:15.120Z,56.18
2018-04-01T19:43:43.429Z,59.25
2018-04-01T19:46:11.753Z,58.02
2018-04-01T19:48:40.054Z,68.95
2018-04-01T19:51:08.376Z,57.75
2018-04-01T19:53:36.677Z,58.43
2018-04-01T19:56:04.992Z,64.58
2018-04-01T19:58:33.300Z,52.73
2018-04-01T20:01:01.624Z,50.70
2018-04-01T20:03:29.925Z,56.96
2018-04-01T20:05:58.264Z,55.75
2018-04-01T20:08:26.564Z,56.58
2018-04-01T20:10:54.892Z,52.50
2018-04-01T20:13:23.186Z,51.62
2018-04-01T20:15:51.481Z,55.13
2018-04-01T20:18:19.792Z,55.52
2018-04-01T20:20:48.137Z,71.63
2018-04-01T20:23:16.457Z,58.00
2018-04-01T20:25:44.753Z,58.33
2018-04-01T20:28:13.066Z,55.90
2018-04-01T20:30:41.364Z,58.92
2018-04-01T20:33:09.692Z,55.48
2018-04-01T20:35:37.994Z,52.57
2018-04-01T20:38:06.315Z,60.85
2018-04-01T20:40:34.613Z,67.33
2018-04-01T20:43:02.937Z,51.50
2018-04-01T20:45:31.233Z,49.28
2018-04-01T20:47:59.557Z,51.98
2018-04-01T20:50:27.862Z,55.57
2018-04-01T20:52:56.185Z,46.77
2018-04-01T20:55:24.491Z,48.20
2018-04-01T20:57:52.808Z,58.90
2018-04-01T21:00:21.102Z,55.83
2018-04-01T21:02:49.420Z,48.45
2018-04-01T21:05:17.721Z,54.48
2018-04-01T21:07:46.044Z,49.58
2018-04-01T21:10:14.336Z,53.87
2018-04-01T21:12:42.664Z,50.12
2018-04-01T21:15:10.965Z,52.32
2018-04-01T21:17:39.298Z,55.95
2018-04-01T21:20:07.596Z,46.42
2018-04-01T21:22:35.912Z,51.15
2018-04-01T21:25:04.208Z,49.95
2018-04-01T21:27:31.777Z,46.73
2018-04-01T21:30:00.077Z,45.47
2018-04-01T21:32:28.405Z,47.30
2018-04-01T21:34:56.708Z,48.48
2018-04-01T21:37:25.045Z,44.77
2018-04-01T21:39:53.340Z,38.33
2018-04-01T21:42:21.637Z,47.25
2018-04-01T21:44:49.201Z,46.92
2018-04-01T21:47:17.512Z,50.33
2018-04-01T21:49:45.836Z,50.87
2018-04-01T21:52:14.136Z,44.32
2018-04-01T21:54:42.458Z,48.38
2018-04-01T21:57:11.008Z,45.57
2018-04-01T21:59:39.351Z,44.17
2018-04-01T22:02:07.653Z,39.58
2018-04-01T22:04:35.972Z,44.73
2018-04-01T22:07:04.284Z,38.87
2018-04-01T22:09:32.608Z,49.72
2018-04-01T22:12:00.917Z,40.38
2018-04-01T22:14:29.237Z,45.98
2018-04-01T22:16:57.533Z,46.10
2018-04-01T22:19:25.857Z,45.13
2018-04-01T22:21:54.157Z,40.92
2018-04-01T22:24:22.472Z,42.40
2018-04-01T22:26:50.777Z,38.55
2018-04-01T22:29:19.101Z,38.43
2018-04-01T22:31:47.406Z,47.37
2018-04-01T22:34:15.724Z,44.08
2018-04-01T22:36:43.260Z,42.78
2018-04-01T22:39:11.582Z,45.17
2018-04-01T22:41:39.883Z,45.75
2018-04-01T22:44:08.208Z,40.90
2018-04-01T22:46:36.535Z,50.43
2018-04-01T22:49:05.424Z,40.27
2018-04-01T22:51:33.729Z,39.43
2018-04-01T22:54:02.056Z,42.02
2018-04-01T22:56:30.373Z,37.17
2018-04-01T22:58:58.692Z,33.45
2018-04-01T23:01:26.996Z,37.53
2018-04-01T23:03:55.315Z,34.52
2018-04-01T23:06:23.617Z,37.90
2018-04-01T23:08:51.936Z,39.50
2018-04-01T23:11:20.233Z,43.72
2018-04-01T23:13:48.561Z,45.08
2018-04-01T23:16:16.864Z,43.05
2018-04-01T23:18:45.157Z,43.57
2018-04-01T23:21:13.468Z,47.82
2018-04-01T23:23:41.766Z,47.00
2018-04-01T23:26:10.084Z,46.35
2018-04-01T23:28:38.392Z,44.88
2018-04-01T23:31:06.709Z,41.30
2018-04-01T23:33:35.006Z,53.15
2018-04-01T23:36:03.320Z,43.90
2018-04-01T23:38:31.613Z,51.67
2018-04-01T23:40:59.925Z,42.95
2018-04-01T23:43:28.221Z,40.20
2018-04-01T23:45:56.541Z,41.02
2018-04-01T23:48:24.844Z,39.98
2018-04-01T23:50:53.156Z,36.33
2018-04-01T23:53:21.456Z,37.75
2018-04-01T23:55:49.778Z,40.65
2018-04-01T23:58:18.075Z,43.20
